Pottsville, Pennsylvania
Current Conditions -  °F | °C
As of 7:55 AM on Monday 22 Dec 2014 (Local Time) from KHZL Reporting Station
Overcast Overcast  
Wind Chill: 25°   Ceiling: 800
Heat Index: 30°   Visibility: 10mi
Dew Point: 28°   Wind: 5mph
Humidity: 93%   Direction: 140°SE
Pressure: 30.26"   Gusts: NA
Location:  40.69°N, 76.19°W
Report Text: KHZL 221255Z AUTO 14004KT 10SM OVC008 M01/M02 A3026 RMK AO2 PNO
Loading
Personal Weather Stations






























Interactive Weather Map New forecast layout! Learn more

10-Day Weather Forecast

Advertisements
Track Severe Weather on mobile